Latest Coastal Weather Observations for McCluer Island

IDD60701

Issued at 9:31 am CST Thursday 19 September 2019 (issued every 10 minutes, with the page automatically refreshed every 10 minutes)

About coastal observations | Map of coastal stations | Coastal observations for NT | Marine services | Other Formats
Station Details ID: 014274 Name: MCCLUER ISLAND Lat: -11.05 Lon: 132.98 Height: 1.4 m
Data from the previous 72 hours. | See also: Recent months at McCluer Island
Date/Time
CST
Wind Sea
Height
m
Swell Vis
km
Cloud Weather Temp
°C
Press
hPa
Rain since
9am
mm
Dir  Spd
kts
Gust
kts
Height
m
Period
s
Dir
19/09:30am ENE 9 11 - - - - - - - 25.5 1015.8 0.0
19/09:00am ENE 11 12 - - - - - - - 25.6 1015.7 0.0
19/08:30am NE 11 12 - - - - - - - 25.3 1015.4 0.0
19/08:00am ENE 11 13 - - - - - - - 25.1 1015.2 0.0
19/07:30am ENE 10 11 - - - - - - - 24.8 1015.2 0.0
19/07:00am E 11 14 - - - - - - - 24.4 1014.7 0.0
19/06:30am ENE 12 15 - - - - - - - 24.3 1014.4 0.0
19/06:00am ENE 13 15 - - - - - - - 24.2 1013.9 0.0
19/05:30am ENE 11 13 - - - - - - - 24.2 1013.7 0.0
19/05:00am E 7 9 - - - - - - - 22.6 1013.8 0.0
19/04:30am E 7 8 - - - - - - - 22.4 1013.9 0.0
19/04:00am E 7 8 - - - - - - - 22.3 1013.7 0.0
19/03:30am E 6 7 - - - - - - - 22.6 1013.7 0.0
19/03:00am E 7 7 - - - - - - - 22.5 1013.8 0.0
19/02:30am E 6 7 - - - - - - - 22.7 1013.9 0.0
19/02:00am E 6 7 - - - - - - - 23.1 1014.2 0.0
19/01:30am ENE 8 8 - - - - - - - 24.7 1014.2 0.0
19/01:00am NE 8 9 - - - - - - - 24.9 1014.3 0.0
19/12:30am NE 9 10 - - - - - - - 25.0 1014.6 0.0
19/12:00am NNE 10 12 - - - - - - - 25.4 1014.8 0.0
 
Date/Time
CST
Wind Sea
Height
m
Swell Vis
km
Cloud Weather Temp
°C
Press
hPa
Rain since
9am
mm
Dir  Spd
kts
Gust
kts
Height
m
Period
s
Dir
18/11:30pm NNE 11 13 - - - - - - - 25.3 1014.9 0.0
18/11:00pm NNE 12 14 - - - - - - - 25.3 1014.9 0.0
18/10:30pm NNE 13 15 - - - - - - - 25.4 1014.9 0.0
18/10:00pm NNE 14 15 - - - - - - - 25.6 1015.0 0.0
18/09:30pm NNE 15 18 - - - - - - - 25.3 1014.8 0.0
18/09:00pm NNE 16 18 - - - - - - - 25.2 1014.6 0.0
18/08:30pm NNE 18 21 - - - - - - - 25.4 1014.5 0.0
18/08:00pm NNE 18 21 - - - - - - - 25.4 1014.2 0.0
18/07:30pm NE 18 21 - - - - - - - 25.3 1014.3 0.0
18/07:00pm NE 20 22 - - - - - - - 25.2 1013.9 0.0
18/06:30pm NE 20 22 - - - - - - - 25.4 1013.7 0.0
18/06:00pm NE 19 22 - - - - - - - 25.4 1013.9 0.0
18/05:30pm NE 19 22 - - - - - - - 25.8 1013.9 0.0
18/05:00pm NE 18 22 - - - - - - - 25.6 1013.8 0.0
18/04:30pm NE 18 22 - - - - - - - 25.7 1013.7 0.0
18/04:00pm ENE 19 22 - - - - - - - 26.0 1013.9 0.0
18/03:30pm NE 20 22 - - - - - - - 26.5 1013.9 0.0
18/03:00pm ENE 17 20 - - - - - - - 26.5 1014.3 0.0
18/02:30pm ENE 18 20 - - - - - - - 26.5 1014.6 0.0
18/02:00pm ENE 15 18 - - - - - - - 26.5 1015.1 0.0
18/01:30pm E 15 17 - - - - - - - 27.0 1015.2 0.0
18/01:00pm ENE 14 17 - - - - - - - 27.8 1015.4 0.0
18/12:30pm E 13 16 - - - - - - - 26.8 1015.6 0.0
18/12:00pm E 11 13 - - - - - - - 27.2 1016.1 0.0
18/11:30am E 12 15 - - - - - - - 26.4 1016.6 0.0
18/11:00am E 11 13 - - - - - - - 26.6 1016.9 0.0
18/10:30am E 11 13 - - - - - - - 26.4 1017.2 0.0
18/10:00am E 12 14 - - - - - - - 26.2 1017.4 0.0
18/09:30am E 13 15 - - - - - - - 25.7 1017.4 0.0
18/09:00am E 12 14 - - - - - - - 25.5 1017.2 0.0
18/08:30am E 13 15 - - - - - - - 25.7 1016.9 0.0
18/08:00am E 13 15 - - - - - - - 25.0 1016.7 0.0
18/07:30am E 13 15 - - - - - - - 24.9 1016.4 0.0
18/07:00am E 14 16 - - - - - - - 24.6 1016.0 0.0
18/06:30am ENE 14 17 - - - - - - - 24.8 1015.7 0.0
18/06:00am ENE 15 17 - - - - - - - 24.9 1015.5 0.0
18/05:30am ENE 14 16 - - - - - - - 24.8 1015.2 0.0
18/05:00am ENE 16 18 - - - - - - - 24.9 1014.9 0.0
18/04:30am ENE 15 17 - - - - - - - 24.8 1014.9 0.0
18/04:00am NE 14 16 - - - - - - - 24.8 1014.7 0.0
18/03:30am ENE 14 16 - - - - - - - 24.8 1014.6 0.0
18/03:00am ENE 14 16 - - - - - - - 24.9 1014.6 0.0
18/02:30am ENE 14 16 - - - - - - - 24.8 1014.7 0.0
18/02:00am NE 14 16 - - - - - - - 24.9 1014.9 0.0
18/01:30am NE 15 17 - - - - - - - 25.1 1015.1 0.0
18/01:00am NE 16 19 - - - - - - - 25.0 1015.2 0.0
18/12:30am NE 17 19 - - - - - - - 25.4 1015.4 0.0
18/12:00am NE 17 20 - - - - - - - 25.2 1015.5 0.0
 
Date/Time
CST
Wind Sea
Height
m
Swell Vis
km
Cloud Weather Temp
°C
Press
hPa
Rain since
9am
mm
Dir  Spd
kts
Gust
kts
Height
m
Period
s
Dir
17/11:30pm NE 17 19 - - - - - - - 25.2 1015.5 0.0
17/11:00pm NE 15 17 - - - - - - - 25.1 1015.6 0.0
17/10:30pm NE 16 17 - - - - - - - 25.2 1015.6 0.0
17/10:00pm NNE 15 17 - - - - - - - 25.3 1015.5 0.0
17/09:30pm NE 14 16 - - - - - - - 25.5 1015.3 0.0
17/09:00pm NE 14 16 - - - - - - - 25.3 1015.0 0.0
17/08:30pm NE 15 18 - - - - - - - 25.3 1014.8 0.0
17/08:00pm NE 16 17 - - - - - - - 25.2 1014.6 0.0
17/07:30pm NE 17 19 - - - - - - - 25.2 1014.4 0.0
17/07:00pm NE 16 19 - - - - - - - 25.3 1014.4 0.0
17/06:30pm ENE 16 18 - - - - - - - 25.1 1014.3 0.0
17/06:00pm ENE 16 18 - - - - - - - 25.4 1014.1 0.0
17/05:30pm ENE 16 18 - - - - - - - 25.6 1013.9 0.0
17/05:00pm ENE 15 18 - - - - - - - 26.1 1013.7 0.0
17/04:30pm ENE 17 19 - - - - - - - 25.8 1013.7 0.0
17/04:00pm ENE 17 19 - - - - - - - 26.0 1013.8 0.0
17/03:30pm E 17 20 - - - - - - - 26.7 1013.8 0.0
17/03:00pm E 15 18 - - - - - - - 26.9 1013.9 0.0
17/02:30pm E 16 19 - - - - - - - 26.4 1014.3 0.0
17/02:00pm E 16 19 - - - - - - - 26.8 1014.6 0.0
17/01:30pm E 16 18 - - - - - - - 26.7 1014.8 0.0
17/01:00pm E 16 19 - - - - - - - 26.5 1015.1 0.0
17/12:30pm E 17 19 - - - - - - - 26.6 1015.6 0.0
17/12:00pm E 16 19 - - - - - - - 26.3 1015.9 0.0
17/11:30am E 16 19 - - - - - - - 26.2 1016.1 0.0
17/11:00am E 17 20 - - - - - - - 26.0 1016.6 0.0
17/10:30am E 17 19 - - - - - - - 26.0 1016.8 0.0
17/10:00am E 17 19 - - - - - - - 25.4 1017.0 0.0
17/09:30am E 17 20 - - - - - - - 25.4 1017.0 0.0
17/09:00am E 17 19 - - - - - - - 25.2 1016.9 0.0
17/08:30am E 18 20 - - - - - - - 25.0 1016.6 0.0
17/08:00am E 17 19 - - - - - - - 24.7 1016.2 0.0
17/07:30am ENE 16 19 - - - - - - - 24.6 1015.9 0.0
17/07:00am ENE 17 20 - - - - - - - 24.4 1015.4 0.0
17/06:30am E 18 20 - - - - - - - 24.5 1014.9 0.0
17/06:00am ENE 17 20 - - - - - - - 24.5 1014.6 0.0
17/05:30am ENE 16 19 - - - - - - - 24.5 1014.3 0.0
17/05:00am E 17 20 - - - - - - - 24.3 1014.0 0.0
17/04:30am ENE 17 19 - - - - - - - 24.3 1013.6 0.0
17/04:00am ENE 16 19 - - - - - - - 24.6 1013.4 0.0
17/03:30am ENE 15 18 - - - - - - - 24.6 1013.2 0.0
17/03:00am ENE 16 18 - - - - - - - 24.8 1013.2 0.0
17/02:30am ENE 16 18 - - - - - - - 24.7 1013.4 0.0
17/02:00am ENE 16 18 - - - - - - - 24.8 1013.6 0.0
17/01:30am ENE 14 17 - - - - - - - 24.7 1013.7 0.0
17/01:00am ENE 15 17 - - - - - - - 24.8 1013.8 0.0
17/12:30am NE 17 20 - - - - - - - 25.0 1014.0 0.0
17/12:00am NE 17 20 - - - - - - - 25.2 1014.1 0.0
 
Date/Time
CST
Wind Sea
Height
m
Swell Vis
km
Cloud Weather Temp
°C
Press
hPa
Rain since
9am
mm
Dir  Spd
kts
Gust
kts
Height
m
Period
s
Dir
16/11:30pm NE 17 21 - - - - - - - 25.1 1014.3 0.0
16/11:00pm NE 17 20 - - - - - - - 25.2 1014.3 0.0
16/10:30pm NE 17 20 - - - - - - - 25.3 1014.4 0.0
16/10:00pm NE 15 17 - - - - - - - 25.1 1014.4 0.0
16/09:30pm NE 14 17 - - - - - - - 25.6 1014.5 0.0
16/09:00pm ENE 15 18 - - - - - - - 25.0 1014.5 0.0
16/08:30pm NE 15 18 - - - - - - - 25.3 1014.3 0.0
16/08:00pm ENE 16 18 - - - - - - - 25.1 1014.1 0.0
16/07:30pm ENE 16 18 - - - - - - - 25.0 1014.0 0.0
16/07:00pm ENE 16 18 - - - - - - - 24.9 1013.8 0.0
16/06:30pm ENE 15 17 - - - - - - - 25.2 1013.5 0.0
16/06:00pm ENE 16 18 - - - - - - - 25.1 1013.3 0.0
16/05:30pm ENE 15 17 - - - - - - - 25.0 1013.4 0.0
16/05:00pm ENE 14 16 - - - - - - - 25.3 1013.4 0.0
16/04:30pm ENE 14 16 - - - - - - - 25.5 1013.4 0.0
16/04:00pm ENE 15 17 - - - - - - - 25.6 1013.5 0.0
16/03:30pm ENE 14 16 - - - - - - - 25.5 1013.6 0.0
16/03:00pm E 14 16 - - - - - - - 26.0 1013.6 0.0
16/02:30pm ENE 13 16 - - - - - - - 26.2 1013.8 0.0
16/02:00pm ENE 15 17 - - - - - - - 26.0 1014.1 0.0
16/01:30pm ENE 14 17 - - - - - - - 26.2 1014.4 0.0
16/01:00pm E 15 18 - - - - - - - 26.1 1014.7 0.0
16/12:30pm E 15 18 - - - - - - - 26.2 1014.9 0.0
16/12:00pm E 15 18 - - - - - - - 25.9 1015.3 0.0
16/11:30am ENE 15 17 - - - - - - - 25.9 1015.7 0.0
16/11:00am ENE 16 19 - - - - - - - 25.5 1015.9 0.0
16/10:30am ENE 17 20 - - - - - - - 25.2 1016.2 0.0
16/10:00am ENE 16 19 - - - - - - - 25.1 1016.1 0.0

Other formats

Comma delimited format used in spreadsheet applications
http://www.bom.gov.au/fwo/IDD60701/IDD60701.94135.axf

JavaScript Object Notation format (JSON) in row-major order
http://www.bom.gov.au/fwo/IDD60701/IDD60701.94135.json

Data quality

Most of these data are generated automatically and are frequently updated. Quality checks on data are not normally performed. It is possible for incorrect values to appear. Refer to information at About Latest Weather Observations and please check the disclaimer before using these data.